Terminal Aerodrome Forecast
Issued by NWS

Home | Current Version | Previous Version | Text Only | Print | Product List | Glossary On
Versions: 1 2 3 4 5 6 7 8 9 10 11 12 13 14 15 16 17 18 19
000
FTUS46 KMTR 171100 CCA
TAFSNS
TAF COR
KSNS 171143Z 1712/1812 00000KT P6SM SCT006
      TEMPO 1712/1716 OVC006
     FM171700 29011KT P6SM SKC
     FM180300 24004KT P6SM FEW008
     FM180700 VRB04KT P6SM OVC006 PROB30 1808/1812 P6SM -SHRA
      BKN025=

USA.gov is the U.S. government's official web portal to all federal, state and local government web resources and services.